메인 페이지
METAR-TAF:

METAR-TAF

공항 :

칼리지스테이션, 텍사스, 미국

위도: 30-34-56N, 경도: 096-21-42W, 고도: 97m

현재 날씨관측

예보는 50분 전, 13:53시(UTC)에 발표되었습니다.
무풍
온도 8°C
습도 87%
기압 1012 hPa
시정: 11.3km
맑음

METAR: KCLL 141353Z 00000KT 7SM CLR 08/06 A2989 RMK AO2 SLP120 T00780056

시각: 08:43 (14:43 UTC)

예보

예보는 3 시간 8분 전, 11:35시(UTC)에 발표되었습니다.
예보 대상 시간: 14일 12시부터 15일 12시까지 (UTC)
kt
시정: 10km
맑음
14일 1700시부터 (UTC)
남동7kt
시정: 10km
맑음
15일 0600시부터 (UTC)
남남동6kt
시정: 10km
고도 3500ft 상공 구름 조금
15일 0900시부터 (UTC)
6kt
시정: 10km
고도 2500ft 상공 구름 많음
15일 1000시부터 (UTC)
6kt
시정: 9.7km
고도 1800ft 상공 구름 많음
박무

TAF: KCLL 141135Z 1412/1512 00000KT P6SM SKC FM141700 13007KT P6SM SKC FM150600 16006KT P6SM FEW035 FM150900 17006KT P6SM BKN025 FM151000 17006KT 6SM BR BKN018

4,000개 이상의 공항 관측 자료 및 예보 (METAR 및 TAF 보고).

지도상에서 검색 가능한 기상관측소가 노란 점과 빨간 점으로 표시되어 있습니다.

기상관측소 명을 보려면 표시 위로 마우스를 이동하세요.

날씨 관측과 예보를 보려면 클릭하세요.

지도 변경 : 확대하려면 엑스 표시가 있는 녹색 버튼, 축소하려면 빼기 표시가 있는 녹색 버튼, 다음 페이지의 지도를 보려면 녹색 화살표를 클릭하세요.


METAR-TAF: